Aviation Digital Data Service (ADDS)

Output produced by METARs form (0556 UTC 16 February 2019)
found at http://www.aviationweather.gov/metar/data/
 
Forecast for: WADD (BALI INTL , ID)
Text: TAF WADD 160500Z 1606/1706 14010KT 9999 SCT017
Forecast period: 0600 to 1400 UTC 16 February 2019
Forecast type: FROM: standard forecast or significant change
Winds: from the SE (140 degrees) at 12 MPH (10 knots; 5.1 m/s)
Visibility: 6 or more miles 10+ km)
Ceiling: at least 12,000 feet AGL
Clouds: scattered clouds at 1700 feet AGL
Weather: no significant weather forecast for this period
Text: BECMG 1614/1616 VRB05KT
Forecast period: 1400 UTC 16 February 2019 to 0600 UTC 17 February 2019
Forecast type: BECOMING: Conditions expected to become as follows by 1600 UTC 16 February 2019
Winds: variable direction winds at 6 MPH (5 knots; 2.6 m/s)
Visibility: 6 or more miles 10+ km)
Ceiling: at least 12,000 feet AGL
Clouds: scattered clouds at 1700 feet AGL
Weather: no significant weather forecast for this period